Time;durP1;ratioP1;P1;durP2;ratioP2;P2;SDS_P1;SDS_P2;PMS_P1;PMS_P2;Temp;Humidity;BMP_temperature;BMP_pressure;BME280_temperature;BME280_humidity;BME280_pressure;Samples;Min_cycle;Max_cycle;Signal;HPM_P1;HPM_P2
2023/08/02 00:01:15;;;;;;;3.60;2.40;;;;;;;;;;5019696;28;20179;-75
2023/08/02 00:03:41;;;;;;;2.73;2.20;;;;;;;;;;5017982;28;20231;-75
2023/08/02 00:06:06;;;;;;;3.70;1.80;;;;;;;;;;5018088;28;20197;-75
2023/08/02 00:08:31;;;;;;;3.00;2.20;;;;;;;;;;5014306;28;20184;-75
2023/08/02 00:10:58;;;;;;;3.87;2.00;;;;;;;;;;5017073;28;20235;-75
2023/08/02 00:13:23;;;;;;;2.73;1.83;;;;;;;;;;5027956;28;20270;-75
2023/08/02 00:15:49;;;;;;;3.00;1.93;;;;;;;;;;5013134;28;20205;-75
2023/08/02 00:18:15;;;;;;;2.50;2.17;;;;;;;;;;5017097;28;20178;-75
2023/08/02 00:20:40;;;;;;;2.30;1.77;;;;;;;;;;5021218;28;20187;-75
2023/08/02 00:23:06;;;;;;;1.77;1.67;;;;;;;;;;5018965;28;20190;-75
2023/08/02 00:25:31;;;;;;;3.80;1.83;;;;;;;;;;5023592;28;20193;-75
2023/08/02 00:27:56;;;;;;;2.63;1.80;;;;;;;;;;5021600;28;20227;-75
2023/08/02 00:30:22;;;;;;;2.77;1.90;;;;;;;;;;5013682;28;20183;-75
2023/08/02 00:32:47;;;;;;;1.77;1.67;;;;;;;;;;5019481;28;20175;-75
2023/08/02 00:35:13;;;;;;;2.30;2.00;;;;;;;;;;5024594;28;20290;-75
2023/08/02 00:37:38;;;;;;;4.13;2.73;;;;;;;;;;5024152;28;20170;-75
2023/08/02 00:40:04;;;;;;;3.30;2.27;;;;;;;;;;5020569;28;20189;-75
2023/08/02 00:42:29;;;;;;;2.50;1.80;;;;;;;;;;5018668;28;20234;-75
2023/08/02 00:44:54;;;;;;;3.57;2.53;;;;;;;;;;5018707;28;20223;-75
2023/08/02 00:47:19;;;;;;;3.77;2.10;;;;;;;;;;5019106;28;20182;-75
2023/08/02 00:49:45;;;;;;;2.10;1.90;;;;;;;;;;5011758;28;20190;-75
2023/08/02 00:52:10;;;;;;;2.43;2.00;;;;;;;;;;5017566;28;20182;-75
2023/08/02 00:54:36;;;;;;;2.97;1.77;;;;;;;;;;5017883;28;20218;-75
2023/08/02 00:57:01;;;;;;;2.70;1.70;;;;;;;;;;5016976;28;20176;-75
2023/08/02 00:59:27;;;;;;;3.80;2.37;;;;;;;;;;5019748;28;20181;-75
2023/08/02 01:01:52;;;;;;;2.50;1.80;;;;;;;;;;5021864;28;20233;-75
2023/08/02 01:04:18;;;;;;;4.37;1.80;;;;;;;;;;5014301;28;20261;-75
2023/08/02 01:07:03;;;;;;;2.10;1.77;;;;;;;;;;5021635;28;20236;-75
2023/08/02 01:09:30;;;;;;;6.93;2.60;;;;;;;;;;5023716;28;20202;-75
2023/08/02 01:12:06;;;;;;;2.27;1.80;;;;;;;;;;5016879;28;20190;-75
2023/08/02 01:14:33;;;;;;;3.43;2.10;;;;;;;;;;5019892;28;20254;-75
2023/08/02 01:16:58;;;;;;;4.47;1.83;;;;;;;;;;5015524;28;20180;-75
2023/08/02 01:19:24;;;;;;;2.20;1.80;;;;;;;;;;5015555;28;20172;-75
2023/08/02 01:21:49;;;;;;;3.07;2.10;;;;;;;;;;5016582;28;20187;-75
2023/08/02 01:24:15;;;;;;;4.97;2.10;;;;;;;;;;5015759;28;20179;-75
2023/08/02 01:26:43;;;;;;;4.80;2.03;;;;;;;;;;5012583;28;20246;-75
2023/08/02 01:29:12;;;;;;;3.70;2.03;;;;;;;;;;5015759;28;20174;-75
2023/08/02 01:31:37;;;;;;;3.30;1.90;;;;;;;;;;5015245;28;20189;-75
2023/08/02 01:34:03;;;;;;;3.70;2.20;;;;;;;;;;5021636;28;20184;-75
2023/08/02 01:36:28;;;;;;;3.67;2.10;;;;;;;;;;5021785;28;20201;-75
2023/08/02 01:38:53;;;;;;;2.10;1.90;;;;;;;;;;5014589;28;20174;-75
2023/08/02 01:41:19;;;;;;;2.03;1.90;;;;;;;;;;5012316;28;20172;-75
2023/08/02 01:43:44;;;;;;;2.70;2.00;;;;;;;;;;5020087;28;20207;-75
2023/08/02 01:46:09;;;;;;;2.43;2.00;;;;;;;;;;5017263;28;20192;-75
2023/08/02 01:48:34;;;;;;;3.53;1.90;;;;;;;;;;5018305;28;20208;-75
2023/08/02 01:51:00;;;;;;;2.20;1.70;;;;;;;;;;5020333;28;20189;-75
2023/08/02 01:53:25;;;;;;;2.73;1.87;;;;;;;;;;5025056;28;20195;-75
2023/08/02 01:55:50;;;;;;;2.70;1.93;;;;;;;;;;5014121;28;20207;-75
2023/08/02 01:58:15;;;;;;;3.13;1.93;;;;;;;;;;5014811;28;20187;-75
2023/08/02 02:00:41;;;;;;;3.47;2.53;;;;;;;;;;5014047;28;20187;-75
2023/08/02 02:03:06;;;;;;;3.43;2.20;;;;;;;;;;5013019;28;20590;-77
2023/08/02 02:05:31;;;;;;;4.63;1.97;;;;;;;;;;5016312;28;20251;-75
2023/08/02 02:07:57;;;;;;;2.90;2.27;;;;;;;;;;5014959;28;20188;-75
2023/08/02 02:10:22;;;;;;;2.30;1.87;;;;;;;;;;5015518;28;20179;-75
2023/08/02 02:12:47;;;;;;;3.47;2.10;;;;;;;;;;5016854;28;20191;-75
2023/08/02 02:15:12;;;;;;;4.57;2.40;;;;;;;;;;5012711;28;20225;-75
2023/08/02 02:17:38;;;;;;;4.20;2.00;;;;;;;;;;5011584;28;20226;-75
2023/08/02 02:20:04;;;;;;;2.97;1.90;;;;;;;;;;5011765;28;20188;-75
2023/08/02 02:22:29;;;;;;;3.57;1.90;;;;;;;;;;5017192;28;20259;-75
2023/08/02 02:24:55;;;;;;;2.37;2.10;;;;;;;;;;5023697;28;20189;-75
2023/08/02 02:27:20;;;;;;;2.67;2.33;;;;;;;;;;5017504;28;20179;-75
2023/08/02 02:29:45;;;;;;;2.20;2.00;;;;;;;;;;5013381;28;20265;-75
2023/08/02 02:32:10;;;;;;;2.87;2.20;;;;;;;;;;5011709;28;20214;-75
2023/08/02 02:34:36;;;;;;;2.20;1.80;;;;;;;;;;5020357;28;20185;-75
2023/08/02 02:37:01;;;;;;;4.07;2.30;;;;;;;;;;5023007;28;20262;-75
2023/08/02 02:39:26;;;;;;;3.43;2.30;;;;;;;;;;5012006;28;20335;-75
2023/08/02 02:41:51;;;;;;;3.10;2.17;;;;;;;;;;5011372;28;20232;-75
2023/08/02 02:44:16;;;;;;;3.00;1.93;;;;;;;;;;5021921;28;20203;-75
2023/08/02 02:46:42;;;;;;;3.50;2.20;;;;;;;;;;5011125;28;20188;-75
2023/08/02 02:49:07;;;;;;;3.43;2.07;;;;;;;;;;5012393;28;20191;-75
2023/08/02 02:51:32;;;;;;;2.70;2.10;;;;;;;;;;5012939;28;20183;-75
2023/08/02 02:53:57;;;;;;;2.57;2.13;;;;;;;;;;5018139;28;20295;-75
2023/08/02 02:56:22;;;;;;;2.30;2.07;;;;;;;;;;5017074;28;20202;-75
2023/08/02 02:58:48;;;;;;;1.97;1.87;;;;;;;;;;5015299;28;20185;-75
2023/08/02 03:01:13;;;;;;;3.70;2.53;;;;;;;;;;5013200;28;20205;-75
2023/08/02 03:03:38;;;;;;;4.87;2.60;;;;;;;;;;5014206;28;20268;-75
2023/08/02 03:06:04;;;;;;;4.27;2.50;;;;;;;;;;5022348;28;20185;-75
2023/08/02 03:08:30;;;;;;;2.83;2.23;;;;;;;;;;5014953;28;20229;-75
2023/08/02 03:10:55;;;;;;;4.23;2.33;;;;;;;;;;5011358;28;20180;-75
2023/08/02 03:13:20;;;;;;;2.80;1.93;;;;;;;;;;5016905;28;20188;-75
2023/08/02 03:15:45;;;;;;;4.43;2.33;;;;;;;;;;5013753;28;20306;-75
2023/08/02 03:18:11;;;;;;;2.77;2.37;;;;;;;;;;5016239;28;20185;-75
2023/08/02 03:20:39;;;;;;;4.37;2.43;;;;;;;;;;5017233;28;20271;-75
2023/08/02 03:23:05;;;;;;;3.03;2.10;;;;;;;;;;5015313;28;20185;-75
2023/08/02 03:25:30;;;;;;;4.90;2.50;;;;;;;;;;5013475;28;20176;-75
2023/08/02 03:27:56;;;;;;;3.50;2.40;;;;;;;;;;5021443;28;20191;-75
2023/08/02 03:30:21;;;;;;;3.57;2.37;;;;;;;;;;5016551;28;20178;-75
2023/08/02 03:32:46;;;;;;;3.23;2.43;;;;;;;;;;5017767;28;20214;-75
2023/08/02 03:35:12;;;;;;;2.50;2.30;;;;;;;;;;5016879;28;20204;-75
2023/08/02 03:37:37;;;;;;;2.60;2.30;;;;;;;;;;5024901;28;20180;-75
2023/08/02 03:40:02;;;;;;;3.87;2.40;;;;;;;;;;5017115;28;20191;-75
2023/08/02 03:42:27;;;;;;;3.03;2.40;;;;;;;;;;5015847;28;20188;-75
2023/08/02 03:44:53;;;;;;;3.27;2.40;;;;;;;;;;5022147;28;20178;-75
2023/08/02 03:47:18;;;;;;;4.40;2.30;;;;;;;;;;5022692;28;20178;-75
2023/08/02 03:49:43;;;;;;;2.90;2.20;;;;;;;;;;5021284;28;20231;-75
2023/08/02 03:52:08;;;;;;;3.60;2.63;;;;;;;;;;5021023;28;20177;-75
2023/08/02 03:54:33;;;;;;;6.30;3.03;;;;;;;;;;5022093;28;20206;-75
2023/08/02 03:56:59;;;;;;;3.00;2.67;;;;;;;;;;5021574;28;20174;-75
2023/08/02 03:59:24;;;;;;;3.50;2.47;;;;;;;;;;5018149;28;20169;-75
2023/08/02 04:01:49;;;;;;;4.17;2.47;;;;;;;;;;5020604;28;20266;-75
2023/08/02 04:04:14;;;;;;;3.60;2.77;;;;;;;;;;5012994;28;20235;-75
2023/08/02 04:06:39;;;;;;;5.20;2.53;;;;;;;;;;5017613;28;20249;-75
2023/08/02 04:09:05;;;;;;;2.93;2.63;;;;;;;;;;5029630;28;20251;-75
2023/08/02 04:11:31;;;;;;;3.23;2.50;;;;;;;;;;5020408;28;20189;-74
2023/08/02 04:13:56;;;;;;;4.13;2.40;;;;;;;;;;5024344;28;20189;-75
2023/08/02 04:16:22;;;;;;;4.20;2.87;;;;;;;;;;5028361;28;20216;-74
2023/08/02 04:18:47;;;;;;;3.07;2.53;;;;;;;;;;5014937;28;20196;-74
2023/08/02 04:21:16;;;;;;;3.60;2.60;;;;;;;;;;5018358;28;20181;-74
2023/08/02 04:23:42;;;;;;;2.60;2.40;;;;;;;;;;5020505;28;20182;-74
2023/08/02 04:26:10;;;;;;;3.97;2.63;;;;;;;;;;5014368;28;20197;-74
2023/08/02 04:28:36;;;;;;;2.70;2.50;;;;;;;;;;5020756;28;20349;-74
2023/08/02 04:31:01;;;;;;;3.13;2.20;;;;;;;;;;5018353;28;20245;-74
2023/08/02 04:33:26;;;;;;;2.53;2.33;;;;;;;;;;5020896;28;20182;-74
2023/08/02 04:35:51;;;;;;;2.50;2.30;;;;;;;;;;5012525;28;20220;-74
2023/08/02 04:38:17;;;;;;;3.10;2.80;;;;;;;;;;5015410;28;20254;-74
2023/08/02 04:40:42;;;;;;;2.77;2.47;;;;;;;;;;5017314;28;20189;-74
2023/08/02 04:43:07;;;;;;;4.70;2.87;;;;;;;;;;5020254;28;20203;-74
2023/08/02 04:45:32;;;;;;;3.27;3.07;;;;;;;;;;5019733;28;20197;-74
2023/08/02 04:47:58;;;;;;;2.90;2.47;;;;;;;;;;5023442;28;20239;-74
2023/08/02 04:50:23;;;;;;;3.27;2.50;;;;;;;;;;5021800;28;20190;-73
2023/08/02 04:52:48;;;;;;;4.20;2.80;;;;;;;;;;5026285;28;20262;-73
2023/08/02 04:55:15;;;;;;;4.03;3.13;;;;;;;;;;5024288;28;20211;-74
2023/08/02 04:57:40;;;;;;;4.37;3.30;;;;;;;;;;5025356;28;20186;-73
2023/08/02 05:00:06;;;;;;;4.40;3.40;;;;;;;;;;5020214;28;20181;-73
2023/08/02 05:02:36;;;;;;;3.30;2.80;;;;;;;;;;5016457;28;20185;-73
2023/08/02 05:05:02;;;;;;;3.10;2.50;;;;;;;;;;5018093;28;20230;-73
2023/08/02 05:07:27;;;;;;;3.10;2.70;;;;;;;;;;5019320;28;20216;-73
2023/08/02 05:09:52;;;;;;;3.83;3.07;;;;;;;;;;5023673;28;20183;-73
2023/08/02 05:12:17;;;;;;;3.23;2.93;;;;;;;;;;5022087;28;20187;-73
2023/08/02 05:14:42;;;;;;;3.40;2.67;;;;;;;;;;5016646;28;20188;-73
2023/08/02 05:17:08;;;;;;;3.20;2.63;;;;;;;;;;5021804;28;20188;-74
2023/08/02 05:19:33;;;;;;;5.07;2.70;;;;;;;;;;5019993;28;20174;-74
2023/08/02 05:21:58;;;;;;;4.93;3.20;;;;;;;;;;5015991;28;20264;-73
2023/08/02 05:24:24;;;;;;;3.30;2.77;;;;;;;;;;5026956;28;20173;-73
2023/08/02 05:26:49;;;;;;;6.30;3.20;;;;;;;;;;5020097;28;20269;-73
2023/08/02 05:29:14;;;;;;;3.07;2.80;;;;;;;;;;5012455;28;20279;-73
2023/08/02 05:31:40;;;;;;;4.43;3.40;;;;;;;;;;5020470;28;20233;-72
2023/08/02 05:34:05;;;;;;;3.30;3.00;;;;;;;;;;5020793;28;20182;-72
2023/08/02 05:36:33;;;;;;;5.00;3.27;;;;;;;;;;5024100;28;20202;-73
2023/08/02 05:38:58;;;;;;;3.67;2.77;;;;;;;;;;5027002;28;20212;-72
2023/08/02 05:41:24;;;;;;;4.40;3.17;;;;;;;;;;5014220;28;20202;-72
2023/08/02 05:43:49;;;;;;;3.63;2.70;;;;;;;;;;5014017;28;20177;-72
2023/08/02 05:46:14;;;;;;;3.33;3.03;;;;;;;;;;5027089;28;20267;-73
2023/08/02 05:48:39;;;;;;;3.43;3.00;;;;;;;;;;5026232;28;20186;-73
2023/08/02 05:51:04;;;;;;;3.07;2.77;;;;;;;;;;5018658;28;20180;-73
2023/08/02 05:53:30;;;;;;;3.07;2.77;;;;;;;;;;5016465;28;20274;-73
2023/08/02 05:55:55;;;;;;;2.87;2.67;;;;;;;;;;5025916;28;20205;-73
2023/08/02 05:58:21;;;;;;;2.67;2.40;;;;;;;;;;5027986;28;20211;-72
2023/08/02 06:00:46;;;;;;;4.00;3.17;;;;;;;;;;5021851;28;20247;-72
2023/08/02 06:03:11;;;;;;;3.37;3.07;;;;;;;;;;5020809;28;20207;-72
2023/08/02 06:05:36;;;;;;;2.77;2.30;;;;;;;;;;5016242;28;20204;-73
2023/08/02 06:08:02;;;;;;;3.20;2.37;;;;;;;;;;5013395;28;20231;-72
2023/08/02 06:10:27;;;;;;;2.57;2.37;;;;;;;;;;5015417;28;20176;-72
2023/08/02 06:12:52;;;;;;;3.10;2.70;;;;;;;;;;5016114;28;20261;-72
2023/08/02 06:15:17;;;;;;;2.73;2.40;;;;;;;;;;5012577;28;20231;-73
2023/08/02 06:17:43;;;;;;;2.47;2.27;;;;;;;;;;5012442;28;20175;-72
2023/08/02 06:20:08;;;;;;;2.40;2.20;;;;;;;;;;5011409;28;20279;-72
2023/08/02 06:22:33;;;;;;;2.37;2.17;;;;;;;;;;5015207;28;20187;-73
2023/08/02 06:24:59;;;;;;;3.17;2.80;;;;;;;;;;5018208;28;20187;-73
2023/08/02 06:27:24;;;;;;;3.97;2.53;;;;;;;;;;5015638;28;20258;-73
2023/08/02 06:29:50;;;;;;;3.40;2.43;;;;;;;;;;5021431;28;20180;-72
2023/08/02 06:32:15;;;;;;;2.87;2.63;;;;;;;;;;5015973;28;20183;-73
2023/08/02 06:34:40;;;;;;;2.93;2.57;;;;;;;;;;5013498;28;20212;-73
2023/08/02 06:37:05;;;;;;;2.77;2.40;;;;;;;;;;5012860;28;20179;-72
2023/08/02 06:39:31;;;;;;;3.23;2.20;;;;;;;;;;5013836;28;20175;-72
2023/08/02 06:41:56;;;;;;;2.80;2.33;;;;;;;;;;5019071;28;20177;-72
2023/08/02 06:44:22;;;;;;;1.90;1.80;;;;;;;;;;5014778;28;20174;-72
2023/08/02 06:46:47;;;;;;;2.37;1.93;;;;;;;;;;5013455;28;20240;-72
2023/08/02 06:49:12;;;;;;;2.47;2.20;;;;;;;;;;5011765;28;20187;-72
2023/08/02 06:51:37;;;;;;;3.43;2.20;;;;;;;;;;5018855;28;20301;-72
2023/08/02 06:54:02;;;;;;;2.20;2.00;;;;;;;;;;5012398;28;20209;-72
2023/08/02 06:56:28;;;;;;;2.10;1.90;;;;;;;;;;5018121;28;20189;-72
2023/08/02 06:58:53;;;;;;;1.87;1.77;;;;;;;;;;5013043;28;20182;-72
2023/08/02 07:01:19;;;;;;;2.00;1.80;;;;;;;;;;5020839;28;20174;-72
2023/08/02 07:03:45;;;;;;;2.10;1.90;;;;;;;;;;5019674;28;20225;-73
2023/08/02 07:06:11;;;;;;;2.20;2.00;;;;;;;;;;5013291;28;20196;-72
2023/08/02 07:08:36;;;;;;;1.77;1.67;;;;;;;;;;5015029;28;20273;-72
2023/08/02 07:11:02;;;;;;;1.40;1.30;;;;;;;;;;5016780;28;20176;-72
2023/08/02 07:13:27;;;;;;;1.47;1.30;;;;;;;;;;5023673;28;20185;-73
2023/08/02 07:15:52;;;;;;;1.50;1.40;;;;;;;;;;5017737;28;20202;-72
2023/08/02 07:18:17;;;;;;;1.27;1.17;;;;;;;;;;5021503;28;20174;-72
2023/08/02 07:20:42;;;;;;;1.03;1.03;;;;;;;;;;5016585;28;20256;-72
2023/08/02 07:23:08;;;;;;;1.40;1.30;;;;;;;;;;5021470;28;20206;-73
2023/08/02 07:25:34;;;;;;;1.40;1.30;;;;;;;;;;5023128;28;20193;-72
2023/08/02 07:27:59;;;;;;;1.33;1.20;;;;;;;;;;5016811;28;20191;-72
2023/08/02 07:30:24;;;;;;;1.23;1.13;;;;;;;;;;5015920;28;20228;-73
2023/08/02 07:32:49;;;;;;;1.70;1.50;;;;;;;;;;5016552;28;20244;-73
2023/08/02 07:35:15;;;;;;;1.50;1.40;;;;;;;;;;5018977;28;20206;-73
2023/08/02 07:37:40;;;;;;;1.50;1.40;;;;;;;;;;5018724;28;20182;-82
2023/08/02 07:40:05;;;;;;;1.40;1.20;;;;;;;;;;5020607;28;20184;-77
2023/08/02 07:42:31;;;;;;;1.00;1.00;;;;;;;;;;5018051;28;20262;-77
2023/08/02 07:45:00;;;;;;;1.40;1.30;;;;;;;;;;5021123;28;20187;-78
2023/08/02 07:47:25;;;;;;;1.70;1.40;;;;;;;;;;5016545;28;20175;-78
2023/08/02 07:49:50;;;;;;;1.40;1.30;;;;;;;;;;5021070;28;20190;-78
2023/08/02 07:52:15;;;;;;;1.50;1.30;;;;;;;;;;5015354;28;20180;-78
2023/08/02 07:54:41;;;;;;;1.40;1.30;;;;;;;;;;5021464;28;20222;-78
2023/08/02 07:57:06;;;;;;;1.60;1.50;;;;;;;;;;5018891;28;20218;-78
2023/08/02 07:59:31;;;;;;;1.47;1.37;;;;;;;;;;5025404;28;20233;-78
2023/08/02 08:01:56;;;;;;;1.40;1.30;;;;;;;;;;5014791;28;20271;-78
2023/08/02 08:04:22;;;;;;;1.20;1.10;;;;;;;;;;5023446;28;20239;-78
2023/08/02 08:06:47;;;;;;;1.50;1.40;;;;;;;;;;5024029;28;20191;-77
2023/08/02 08:09:12;;;;;;;1.90;1.23;;;;;;;;;;5028981;28;20185;-77
2023/08/02 08:11:37;;;;;;;1.30;1.20;;;;;;;;;;5014886;28;20175;-77
2023/08/02 08:14:02;;;;;;;1.37;1.27;;;;;;;;;;5022519;28;20277;-78
2023/08/02 08:16:28;;;;;;;1.50;1.40;;;;;;;;;;5022929;28;20211;-78
2023/08/02 08:18:53;;;;;;;1.90;1.70;;;;;;;;;;5020996;28;20202;-78
2023/08/02 08:21:19;;;;;;;1.43;1.30;;;;;;;;;;5017868;28;20215;-78
2023/08/02 08:23:44;;;;;;;1.70;1.57;;;;;;;;;;5017937;28;20186;-78
2023/08/02 08:26:12;;;;;;;1.60;1.50;;;;;;;;;;5014508;28;20191;-78
2023/08/02 08:28:37;;;;;;;1.70;1.60;;;;;;;;;;5020509;28;20178;-78
2023/08/02 08:31:03;;;;;;;1.70;1.40;;;;;;;;;;5013175;28;20202;-77
2023/08/02 08:33:29;;;;;;;1.53;1.43;;;;;;;;;;5022600;28;20190;-77
2023/08/02 08:35:54;;;;;;;1.60;1.50;;;;;;;;;;5027293;28;20206;-78
2023/08/02 08:38:19;;;;;;;1.57;1.47;;;;;;;;;;5022253;28;20179;-79
2023/08/02 08:40:51;;;;;;;1.83;1.50;;;;;;;;;;5017882;28;20253;-78
2023/08/02 08:43:17;;;;;;;1.90;1.50;;;;;;;;;;5027562;28;20195;-78
2023/08/02 08:45:43;;;;;;;1.60;1.50;;;;;;;;;;5020438;28;20178;-78
2023/08/02 08:48:09;;;;;;;2.17;1.97;;;;;;;;;;5026507;28;20243;-78
2023/08/02 08:50:34;;;;;;;1.63;1.53;;;;;;;;;;5029251;28;20274;-78
2023/08/02 08:53:04;;;;;;;1.80;1.60;;;;;;;;;;5019569;28;20227;-78
2023/08/02 08:55:29;;;;;;;1.70;1.60;;;;;;;;;;5027688;28;20230;-78
2023/08/02 08:57:54;;;;;;;2.33;2.10;;;;;;;;;;5023393;28;20175;-78
2023/08/02 09:00:20;;;;;;;1.83;1.70;;;;;;;;;;5017563;28;20214;-78
2023/08/02 09:02:46;;;;;;;2.10;1.90;;;;;;;;;;5021907;28;20267;-78
2023/08/02 09:05:11;;;;;;;1.83;1.73;;;;;;;;;;5014147;28;20273;-78
2023/08/02 09:07:36;;;;;;;2.17;1.97;;;;;;;;;;5025575;28;20208;-78
2023/08/02 09:10:02;;;;;;;2.43;2.23;;;;;;;;;;5013411;28;20235;-78
2023/08/02 09:12:27;;;;;;;2.33;2.13;;;;;;;;;;5024979;28;20236;-78
2023/08/02 09:15:04;;;;;;;2.27;2.07;;;;;;;;;;5020741;28;20280;-78
2023/08/02 09:17:44;;;;;;;2.40;2.20;;;;;;;;;;5018322;28;20179;-78
2023/08/02 09:20:09;;;;;;;2.20;2.00;;;;;;;;;;5015491;28;20211;-78
2023/08/02 09:22:35;;;;;;;2.53;2.17;;;;;;;;;;5020771;28;20216;-78
2023/08/02 09:25:02;;;;;;;2.10;1.90;;;;;;;;;;5015685;28;20185;-79
2023/08/02 09:27:29;;;;;;;2.53;2.27;;;;;;;;;;5018414;28;20183;-77
2023/08/02 09:29:55;;;;;;;2.00;1.80;;;;;;;;;;5018388;28;20250;-78
2023/08/02 09:32:21;;;;;;;1.90;1.77;;;;;;;;;;5015541;28;20183;-78
2023/08/02 09:34:48;;;;;;;2.10;1.80;;;;;;;;;;5018509;28;20256;-78
2023/08/02 09:37:14;;;;;;;2.00;1.70;;;;;;;;;;5023118;28;20171;-78
2023/08/02 09:39:47;;;;;;;2.30;1.60;;;;;;;;;;5019480;28;20272;-78
2023/08/02 09:42:13;;;;;;;1.67;1.57;;;;;;;;;;5026357;28;20265;-78
2023/08/02 09:44:39;;;;;;;2.10;1.90;;;;;;;;;;5018947;28;20210;-78
2023/08/02 09:47:11;;;;;;;1.90;1.30;;;;;;;;;;5021528;28;20173;-78
2023/08/02 09:49:37;;;;;;;1.53;1.43;;;;;;;;;;5022543;28;20209;-78
2023/08/02 09:52:03;;;;;;;1.43;1.33;;;;;;;;;;5013086;28;20219;-78
2023/08/02 09:54:29;;;;;;;2.43;1.50;;;;;;;;;;5015906;28;20211;-78
2023/08/02 09:56:54;;;;;;;4.83;1.60;;;;;;;;;;5014868;28;20208;-78
2023/08/02 09:59:20;;;;;;;1.40;1.30;;;;;;;;;;5024651;28;20250;-78
2023/08/02 10:01:47;;;;;;;1.90;1.80;;;;;;;;;;5027486;28;20277;-78
2023/08/02 10:04:13;;;;;;;1.80;1.70;;;;;;;;;;5014203;28;20229;-78
2023/08/02 10:06:47;;;;;;;4.00;1.63;;;;;;;;;;5017690;28;20423;-79
2023/08/02 10:09:16;;;;;;;1.90;1.80;;;;;;;;;;5015486;28;20233;-78
2023/08/02 10:11:45;;;;;;;1.67;1.57;;;;;;;;;;5022070;28;20182;-78
2023/08/02 10:14:10;;;;;;;1.73;1.63;;;;;;;;;;5025230;28;20210;-78
2023/08/02 10:16:37;;;;;;;1.80;1.70;;;;;;;;;;5028460;28;20208;-78
2023/08/02 10:19:03;;;;;;;2.27;1.60;;;;;;;;;;5021413;28;20172;-78
2023/08/02 10:21:30;;;;;;;2.37;1.70;;;;;;;;;;5017654;28;20174;-78
2023/08/02 10:23:57;;;;;;;1.80;1.70;;;;;;;;;;5024447;28;20181;-79
2023/08/02 10:26:22;;;;;;;2.63;2.23;;;;;;;;;;5015915;28;20190;-79
2023/08/02 10:28:48;;;;;;;2.60;2.40;;;;;;;;;;5037758;28;20190;-78
2023/08/02 10:31:16;;;;;;;2.50;2.30;;;;;;;;;;5014859;28;20186;-79
2023/08/02 10:33:42;;;;;;;3.13;2.53;;;;;;;;;;5019668;28;20266;-78
2023/08/02 10:36:07;;;;;;;3.67;2.53;;;;;;;;;;5019047;28;20219;-78
2023/08/02 10:38:38;;;;;;;3.03;2.73;;;;;;;;;;5020070;28;20191;-78
2023/08/02 10:41:05;;;;;;;2.83;2.53;;;;;;;;;;5021883;28;20232;-77
2023/08/02 10:43:31;;;;;;;3.33;3.00;;;;;;;;;;5020889;28;20250;-78
2023/08/02 10:46:15;;;;;;;4.50;2.90;;;;;;;;;;5016502;28;20262;-78
2023/08/02 10:48:40;;;;;;;3.40;3.10;;;;;;;;;;5036722;28;20187;-78
2023/08/02 10:51:25;;;;;;;4.03;3.20;;;;;;;;;;5022780;28;20187;-78
2023/08/02 10:54:21;;;;;;;5.53;3.77;;;;;;;;;;5024820;28;20216;-78
2023/08/02 10:56:53;;;;;;;3.50;3.20;;;;;;;;;;5013330;28;20213;-78
2023/08/02 10:59:18;;;;;;;4.30;3.90;;;;;;;;;;5012158;28;20216;-78
2023/08/02 11:02:00;;;;;;;5.43;3.80;;;;;;;;;;5015455;28;20197;-78
2023/08/02 11:04:27;;;;;;;4.00;3.60;;;;;;;;;;5021205;28;20229;-78
2023/08/02 11:06:52;;;;;;;4.50;4.07;;;;;;;;;;5022993;28;20236;-78
2023/08/02 11:09:18;;;;;;;4.17;3.77;;;;;;;;;;5019246;28;20176;-78
2023/08/02 11:11:43;;;;;;;4.63;4.23;;;;;;;;;;5021869;28;20178;-78
2023/08/02 11:14:09;;;;;;;4.13;3.73;;;;;;;;;;5013362;28;20186;-78
2023/08/02 11:16:41;;;;;;;5.03;4.53;;;;;;;;;;5023528;28;20223;-78
2023/08/02 11:19:09;;;;;;;4.27;3.77;;;;;;;;;;5022955;28;20195;-78
2023/08/02 11:21:35;;;;;;;5.07;4.60;;;;;;;;;;5015930;28;20184;-78
2023/08/02 11:24:01;;;;;;;4.90;4.47;;;;;;;;;;5015883;28;20180;-78
2023/08/02 11:26:26;;;;;;;4.80;4.30;;;;;;;;;;5012432;28;20259;-81
2023/08/02 11:28:53;;;;;;;5.73;4.57;;;;;;;;;;5017829;28;20188;-78
2023/08/02 11:31:21;;;;;;;5.20;4.40;;;;;;;;;;5010190;28;20181;-78
2023/08/02 11:33:46;;;;;;;5.73;4.43;;;;;;;;;;5018902;28;20187;-78
2023/08/02 11:36:12;;;;;;;5.87;4.50;;;;;;;;;;5016521;28;20203;-78
2023/08/02 11:38:39;;;;;;;6.33;4.30;;;;;;;;;;5011865;28;20183;-78
2023/08/02 11:41:15;;;;;;;4.90;3.90;;;;;;;;;;5016300;28;20182;-78
2023/08/02 11:43:42;;;;;;;4.87;4.13;;;;;;;;;;5013277;28;20182;-78
2023/08/02 11:46:18;;;;;;;4.30;3.90;;;;;;;;;;5017630;28;20248;-78
2023/08/02 11:48:44;;;;;;;4.60;4.10;;;;;;;;;;5019432;28;20243;-78
2023/08/02 11:51:10;;;;;;;4.47;4.00;;;;;;;;;;5011955;28;20268;-78
2023/08/02 11:53:45;;;;;;;4.70;4.23;;;;;;;;;;5012631;28;20216;-78
2023/08/02 11:56:11;;;;;;;5.40;3.60;;;;;;;;;;5015949;28;20294;-78
2023/08/02 11:58:36;;;;;;;4.60;3.60;;;;;;;;;;5018924;28;20253;-78
2023/08/02 12:01:01;;;;;;;4.37;3.97;;;;;;;;;;5023831;28;20219;-78
2023/08/02 12:03:26;;;;;;;3.57;3.27;;;;;;;;;;5026998;28;20173;-77
2023/08/02 12:05:58;;;;;;;3.50;3.20;;;;;;;;;;5014871;28;20255;-78
2023/08/02 12:08:23;;;;;;;3.70;3.40;;;;;;;;;;5017970;28;20196;-79
2023/08/02 12:10:50;;;;;;;3.97;3.10;;;;;;;;;;5020979;28;20190;-78
2023/08/02 12:13:16;;;;;;;5.77;3.97;;;;;;;;;;5022014;28;20187;-78
2023/08/02 12:15:55;;;;;;;4.17;3.80;;;;;;;;;;5018257;28;20203;-77
2023/08/02 12:18:21;;;;;;;3.83;3.53;;;;;;;;;;5014812;28;20180;-78
2023/08/02 12:20:47;;;;;;;3.90;3.33;;;;;;;;;;5014985;28;20172;-78
2023/08/02 12:23:27;;;;;;;4.97;3.97;;;;;;;;;;5021741;28;20175;-78
2023/08/02 12:25:52;;;;;;;4.00;3.70;;;;;;;;;;5016434;28;20226;-78
2023/08/02 12:28:17;;;;;;;6.17;5.63;;;;;;;;;;5017182;28;20204;-78
2023/08/02 12:30:58;;;;;;;4.00;3.33;;;;;;;;;;5021023;28;20229;-78
2023/08/02 12:33:24;;;;;;;3.97;3.60;;;;;;;;;;5019414;28;20172;-78
2023/08/02 12:35:49;;;;;;;4.00;3.60;;;;;;;;;;5025722;28;20306;-78
2023/08/02 12:38:14;;;;;;;4.07;3.27;;;;;;;;;;5040671;28;20252;-78
2023/08/02 12:40:39;;;;;;;3.47;3.17;;;;;;;;;;5022467;28;20177;-78
2023/08/02 12:43:04;;;;;;;4.73;3.20;;;;;;;;;;5018519;28;20188;-78
2023/08/02 12:45:30;;;;;;;4.83;3.60;;;;;;;;;;5030368;28;20253;-78
2023/08/02 12:47:55;;;;;;;2.73;2.53;;;;;;;;;;5013442;28;20184;-78
2023/08/02 12:50:21;;;;;;;4.33;3.50;;;;;;;;;;5023231;28;20185;-77
2023/08/02 12:52:46;;;;;;;3.27;2.97;;;;;;;;;;5023141;28;20257;-79
2023/08/02 12:55:12;;;;;;;4.43;3.77;;;;;;;;;;5014164;28;20205;-78
2023/08/02 12:57:37;;;;;;;3.40;3.10;;;;;;;;;;5025025;28;20211;-78
2023/08/02 13:00:04;;;;;;;3.97;3.60;;;;;;;;;;5032091;28;20177;-78
2023/08/02 13:02:29;;;;;;;4.53;3.73;;;;;;;;;;5029628;28;20187;-78
2023/08/02 13:04:55;;;;;;;4.47;4.07;;;;;;;;;;5024629;28;20220;-79
2023/08/02 13:07:20;;;;;;;3.70;3.33;;;;;;;;;;5020374;28;20190;-79
2023/08/02 13:09:45;;;;;;;3.47;3.17;;;;;;;;;;5021028;28;20231;-79
2023/08/02 13:12:10;;;;;;;3.77;3.47;;;;;;;;;;5014277;28;20179;-79
2023/08/02 13:14:35;;;;;;;3.77;3.47;;;;;;;;;;5016199;28;20181;-78
2023/08/02 13:17:01;;;;;;;3.83;3.47;;;;;;;;;;5022074;28;20217;-78
2023/08/02 13:19:26;;;;;;;4.83;3.93;;;;;;;;;;5022346;28;20270;-78
2023/08/02 13:21:51;;;;;;;4.77;3.97;;;;;;;;;;5022002;28;20191;-78
2023/08/02 13:24:16;;;;;;;4.97;4.40;;;;;;;;;;5029802;28;20176;-77
2023/08/02 13:26:42;;;;;;;6.10;4.40;;;;;;;;;;5023501;28;20178;-77
2023/08/02 13:29:07;;;;;;;4.23;3.87;;;;;;;;;;5017839;28;20191;-78
2023/08/02 13:31:32;;;;;;;4.07;3.67;;;;;;;;;;5022382;28;20176;-79
2023/08/02 13:33:57;;;;;;;4.20;3.80;;;;;;;;;;5024500;28;20183;-79
2023/08/02 13:36:23;;;;;;;3.70;3.27;;;;;;;;;;5018252;28;20188;-78
2023/08/02 13:38:48;;;;;;;5.30;4.13;;;;;;;;;;5015925;28;20215;-78
2023/08/02 13:41:13;;;;;;;3.87;3.53;;;;;;;;;;5015488;28;20178;-78
2023/08/02 13:43:38;;;;;;;4.10;3.43;;;;;;;;;;5015529;28;20191;-78
2023/08/02 13:46:03;;;;;;;4.60;3.47;;;;;;;;;;5026297;28;20182;-78
2023/08/02 13:48:29;;;;;;;4.17;3.13;;;;;;;;;;5019176;28;20216;-79
2023/08/02 13:50:54;;;;;;;3.40;3.10;;;;;;;;;;5012359;28;20180;-78
2023/08/02 13:53:19;;;;;;;3.87;3.23;;;;;;;;;;5021956;28;20212;-78
2023/08/02 13:55:44;;;;;;;3.53;3.23;;;;;;;;;;5020687;28;20207;-78
2023/08/02 13:58:09;;;;;;;3.30;2.93;;;;;;;;;;5018175;28;20242;-78
2023/08/02 14:00:35;;;;;;;3.40;3.10;;;;;;;;;;5024484;28;20174;-78
2023/08/02 14:03:00;;;;;;;4.13;3.07;;;;;;;;;;5016303;28;20189;-78
2023/08/02 14:05:25;;;;;;;3.20;2.90;;;;;;;;;;5013943;28;20237;-79
2023/08/02 14:07:51;;;;;;;4.20;3.30;;;;;;;;;;5015525;28;20237;-78
2023/08/02 14:10:16;;;;;;;3.10;2.80;;;;;;;;;;5018507;28;20210;-78
2023/08/02 14:12:41;;;;;;;3.30;3.00;;;;;;;;;;5016273;28;20241;-79
2023/08/02 14:15:09;;;;;;;3.33;3.03;;;;;;;;;;5019201;28;20185;-78
2023/08/02 14:17:35;;;;;;;3.07;2.77;;;;;;;;;;5015982;28;20215;-78
2023/08/02 14:20:00;;;;;;;4.87;2.70;;;;;;;;;;5016533;28;20223;-78
2023/08/02 14:22:25;;;;;;;3.40;3.10;;;;;;;;;;5021207;28;20249;-78
2023/08/02 14:24:50;;;;;;;2.73;2.37;;;;;;;;;;5012292;28;20180;-78
2023/08/02 14:27:16;;;;;;;3.30;3.00;;;;;;;;;;5017008;28;20262;-78
2023/08/02 14:29:41;;;;;;;2.50;2.30;;;;;;;;;;5018358;28;20246;-78
2023/08/02 14:32:06;;;;;;;2.77;2.40;;;;;;;;;;5015833;28;20181;-78
2023/08/02 14:34:32;;;;;;;3.90;2.27;;;;;;;;;;5016225;28;20184;-78
2023/08/02 14:36:57;;;;;;;3.33;2.73;;;;;;;;;;5019007;28;20206;-78